Terminal Aerodrome Forecast
Issued by NWS Portland, OR

Home | Current Version | Previous Version | Text Only | Print | Product List | Glossary On
Versions: 1 2 3 4 5 6 7 8 9 10 11 12 13 14 15
000
FTUS46 KPQR 272322
TAFSLE
TAF
KSLE 272322Z 2800/2824 31007KT P6SM SKC
     FM280700 VRB03KT P6SM BKN060
     FM281100 32004KT P6SM OVC020
     FM281800 31004KT P6SM OVC025
     FM282000 33006KT P6SM BKN050
     FM282100 33006KT P6SM SKC=

USA.gov is the U.S. government's official web portal to all federal, state and local government web resources and services.